Time;durP1;ratioP1;P1;durP2;ratioP2;P2;SDS_P1;SDS_P2;PMS_P1;PMS_P2;Temp;Humidity;BMP_temperature;BMP_pressure;BME280_temperature;BME280_humidity;BME280_pressure;Samples;Min_cycle;Max_cycle;Signal;HPM_P1;HPM_P2
2022/09/09 00:01:42;;;;;;;2.45;0.75;;;;;;;;;;5057978;28;20116;-82
2022/09/09 00:04:14;;;;;;;2.90;0.80;;;;;;;;;;5058276;28;20039;-81
2022/09/09 00:06:46;;;;;;;2.63;0.88;;;;;;;;;;5048728;28;20374;-81
2022/09/09 00:09:12;;;;;;;3.03;0.70;;;;;;;;;;5051834;28;20068;-82
2022/09/09 00:11:41;;;;;;;2.30;0.80;;;;;;;;;;5059138;28;20035;-82
2022/09/09 00:14:36;;;;;;;2.28;1.00;;;;;;;;;;5060434;28;20202;-82
2022/09/09 00:17:04;;;;;;;3.05;1.27;;;;;;;;;;5045981;28;20052;-81
2022/09/09 00:19:35;;;;;;;2.88;1.00;;;;;;;;;;5054174;28;20021;-82
2022/09/09 00:22:13;;;;;;;2.25;0.75;;;;;;;;;;5058637;28;20040;-82
2022/09/09 00:24:43;;;;;;;2.72;0.90;;;;;;;;;;5058614;28;20028;-82
2022/09/09 00:27:17;;;;;;;2.80;1.05;;;;;;;;;;5058612;28;20067;-82
2022/09/09 00:29:53;;;;;;;2.90;0.80;;;;;;;;;;5058136;28;20036;-82
2022/09/09 00:32:20;;;;;;;2.42;0.95;;;;;;;;;;5052481;28;20489;-82
2022/09/09 00:34:57;;;;;;;3.05;1.00;;;;;;;;;;5038861;28;20036;-82
2022/09/09 00:37:25;;;;;;;2.60;1.00;;;;;;;;;;5049584;28;20017;-82
2022/09/09 00:39:54;;;;;;;2.97;1.02;;;;;;;;;;5059238;28;20047;-82
2022/09/09 00:42:39;;;;;;;3.28;1.10;;;;;;;;;;5046984;28;20033;-81
2022/09/09 00:45:08;;;;;;;2.33;0.90;;;;;;;;;;5047094;28;20037;-81
2022/09/09 00:47:45;;;;;;;2.17;0.90;;;;;;;;;;5058753;28;20051;-82
2022/09/09 00:50:29;;;;;;;2.95;1.10;;;;;;;;;;5040513;28;20061;-81
2022/09/09 00:53:08;;;;;;;2.38;1.00;;;;;;;;;;5055393;28;20033;-81
2022/09/09 00:55:40;;;;;;;2.40;1.10;;;;;;;;;;5059690;28;20081;-82
2022/09/09 00:58:08;;;;;;;1.52;0.80;;;;;;;;;;5058863;28;20021;-81
2022/09/09 01:00:52;;;;;;;3.83;1.13;;;;;;;;;;5058446;28;20025;-82
2022/09/09 01:03:23;;;;;;;2.63;1.20;;;;;;;;;;5057463;28;20052;-82
2022/09/09 01:06:03;;;;;;;3.45;1.20;;;;;;;;;;5058165;28;20021;-82
2022/09/09 01:08:40;;;;;;;3.78;1.38;;;;;;;;;;5056348;28;20104;-82
2022/09/09 01:11:10;;;;;;;2.97;1.20;;;;;;;;;;5056984;28;20035;-82
2022/09/09 01:13:37;;;;;;;2.85;1.17;;;;;;;;;;5056673;28;20086;-82
2022/09/09 01:16:05;;;;;;;2.40;1.08;;;;;;;;;;5056232;28;20425;-83
2022/09/09 01:18:36;;;;;;;4.00;1.20;;;;;;;;;;5054373;28;20021;-82
2022/09/09 01:21:09;;;;;;;2.78;1.02;;;;;;;;;;5055464;28;20070;-83
2022/09/09 01:23:38;;;;;;;3.65;1.30;;;;;;;;;;5049732;28;20890;-82
2022/09/09 01:26:15;;;;;;;4.72;1.20;;;;;;;;;;5056721;28;20025;-82
2022/09/09 01:28:44;;;;;;;3.30;1.35;;;;;;;;;;5047531;28;20033;-82
2022/09/09 01:31:12;;;;;;;3.30;1.17;;;;;;;;;;5052847;28;20029;-82
2022/09/09 01:33:38;;;;;;;3.58;1.40;;;;;;;;;;5055170;28;20096;-81
2022/09/09 01:36:06;;;;;;;5.13;1.20;;;;;;;;;;5051716;28;20071;-81
2022/09/09 01:38:33;;;;;;;2.65;1.25;;;;;;;;;;5045233;28;20120;-81
2022/09/09 01:40:59;;;;;;;3.78;1.40;;;;;;;;;;5047629;28;20047;-81
2022/09/09 01:43:25;;;;;;;4.63;1.20;;;;;;;;;;5054448;28;20052;-81
2022/09/09 01:45:54;;;;;;;2.95;1.27;;;;;;;;;;5056973;28;20059;-81
2022/09/09 01:48:20;;;;;;;4.97;1.40;;;;;;;;;;5056905;28;20111;-81
2022/09/09 01:50:46;;;;;;;3.42;1.05;;;;;;;;;;5057350;28;20032;-82
2022/09/09 01:53:13;;;;;;;3.72;1.30;;;;;;;;;;5058373;28;20392;-82
2022/09/09 01:55:43;;;;;;;2.83;1.10;;;;;;;;;;5057430;28;20032;-82
2022/09/09 01:58:28;;;;;;;3.55;1.40;;;;;;;;;;5057751;28;20027;-82
2022/09/09 02:01:01;;;;;;;3.28;1.05;;;;;;;;;;5058762;28;20053;-81
2022/09/09 02:03:33;;;;;;;2.67;1.40;;;;;;;;;;5056535;28;20057;-82
2022/09/09 02:06:17;;;;;;;2.47;1.10;;;;;;;;;;5059409;28;20017;-82
2022/09/09 02:08:51;;;;;;;4.22;1.20;;;;;;;;;;5053066;28;20017;-82
2022/09/09 02:11:18;;;;;;;3.40;1.05;;;;;;;;;;5058608;28;20046;-82
2022/09/09 02:13:45;;;;;;;2.85;1.05;;;;;;;;;;5063336;28;20076;-82
2022/09/09 02:16:30;;;;;;;3.25;1.25;;;;;;;;;;5059300;28;20469;-82
2022/09/09 02:19:06;;;;;;;4.38;1.40;;;;;;;;;;5053496;28;20029;-82
2022/09/09 02:21:35;;;;;;;3.10;1.38;;;;;;;;;;5061219;28;20079;-81
2022/09/09 02:24:04;;;;;;;3.47;1.30;;;;;;;;;;5062111;28;20396;-81
2022/09/09 02:26:31;;;;;;;3.22;1.23;;;;;;;;;;5062128;28;20139;-81
2022/09/09 02:28:58;;;;;;;3.08;1.20;;;;;;;;;;5060505;28;20029;-81
2022/09/09 02:31:24;;;;;;;3.25;1.20;;;;;;;;;;5062194;28;20081;-82
2022/09/09 02:33:58;;;;;;;4.10;1.10;;;;;;;;;;5061664;28;20157;-82
2022/09/09 02:36:26;;;;;;;2.95;1.15;;;;;;;;;;5062100;28;20028;-82
2022/09/09 02:38:53;;;;;;;3.20;1.55;;;;;;;;;;5054784;28;20047;-82
2022/09/09 02:41:25;;;;;;;3.22;1.17;;;;;;;;;;5061611;28;20029;-82
2022/09/09 02:43:51;;;;;;;3.60;1.20;;;;;;;;;;5061381;28;20112;-82
2022/09/09 02:46:29;;;;;;;2.72;1.20;;;;;;;;;;5058782;28;20373;-81
2022/09/09 02:49:00;;;;;;;3.38;1.20;;;;;;;;;;5054054;28;20029;-81
2022/09/09 02:51:29;;;;;;;4.35;1.40;;;;;;;;;;5056539;28;20025;-81
2022/09/09 02:54:05;;;;;;;3.85;1.50;;;;;;;;;;5058986;28;20028;-82
2022/09/09 02:56:33;;;;;;;3.40;1.30;;;;;;;;;;5058994;28;20048;-82
2022/09/09 02:58:59;;;;;;;4.00;2.10;;;;;;;;;;5057901;28;20044;-82
2022/09/09 03:01:26;;;;;;;3.47;1.40;;;;;;;;;;5058914;28;20033;-81
2022/09/09 03:03:52;;;;;;;4.15;1.33;;;;;;;;;;5060245;28;20039;-81
2022/09/09 03:06:18;;;;;;;3.53;1.35;;;;;;;;;;5060726;28;20108;-81
2022/09/09 03:08:44;;;;;;;3.67;1.65;;;;;;;;;;5061112;28;20025;-81
2022/09/09 03:11:10;;;;;;;4.22;1.98;;;;;;;;;;5061309;28;20028;-81
2022/09/09 03:13:37;;;;;;;4.50;2.20;;;;;;;;;;5058242;28;20017;-82
2022/09/09 03:16:04;;;;;;;4.45;1.80;;;;;;;;;;5062020;28;20017;-81
2022/09/09 03:18:30;;;;;;;4.53;2.20;;;;;;;;;;5058559;28;20048;-81
2022/09/09 03:20:56;;;;;;;4.70;2.10;;;;;;;;;;5060945;28;20253;-81
2022/09/09 03:23:23;;;;;;;4.80;2.00;;;;;;;;;;5060752;28;20484;-80
2022/09/09 03:25:49;;;;;;;5.75;1.92;;;;;;;;;;5059885;28;20033;-82
2022/09/09 03:28:15;;;;;;;4.03;1.90;;;;;;;;;;5059401;28;20064;-81
2022/09/09 03:30:41;;;;;;;4.65;2.00;;;;;;;;;;5059668;28;20116;-82
2022/09/09 03:33:07;;;;;;;4.63;2.17;;;;;;;;;;5060527;28;20021;-82
2022/09/09 03:35:34;;;;;;;4.00;1.83;;;;;;;;;;5061476;28;20028;-81
2022/09/09 03:38:00;;;;;;;3.97;1.90;;;;;;;;;;5059617;28;20021;-81
2022/09/09 03:40:26;;;;;;;4.07;1.83;;;;;;;;;;5059599;28;20025;-82
2022/09/09 03:42:52;;;;;;;5.55;2.22;;;;;;;;;;5060718;28;20021;-82
2022/09/09 03:45:18;;;;;;;3.80;1.75;;;;;;;;;;5064204;28;20020;-81
2022/09/09 03:47:45;;;;;;;4.78;1.70;;;;;;;;;;5079400;28;20045;-81
2022/09/09 03:50:11;;;;;;;4.28;1.80;;;;;;;;;;5062032;28;20027;-82
2022/09/09 03:52:37;;;;;;;3.75;1.85;;;;;;;;;;5058757;28;20038;-81
2022/09/09 03:55:04;;;;;;;6.03;2.67;;;;;;;;;;5061610;28;20024;-81
2022/09/09 03:57:30;;;;;;;4.90;1.95;;;;;;;;;;5050366;28;20014;-81
2022/09/09 03:59:57;;;;;;;5.40;2.45;;;;;;;;;;5053178;28;20021;-82
2022/09/09 04:02:24;;;;;;;5.43;2.03;;;;;;;;;;5051629;28;20030;-81
2022/09/09 04:04:50;;;;;;;3.85;1.58;;;;;;;;;;5060796;28;20028;-81
2022/09/09 04:07:16;;;;;;;3.90;1.70;;;;;;;;;;5059272;28;20021;-82
2022/09/09 04:09:42;;;;;;;4.13;1.88;;;;;;;;;;5045364;28;20022;-81
2022/09/09 04:12:08;;;;;;;5.07;1.90;;;;;;;;;;5059954;28;20507;-82
2022/09/09 04:14:34;;;;;;;4.93;2.08;;;;;;;;;;5056006;28;20025;-82
2022/09/09 04:17:00;;;;;;;4.38;2.10;;;;;;;;;;5059262;28;20029;-81
2022/09/09 04:19:26;;;;;;;3.83;1.92;;;;;;;;;;5048245;28;20025;-82
2022/09/09 04:21:52;;;;;;;5.13;2.00;;;;;;;;;;5057331;28;20047;-81
2022/09/09 04:24:18;;;;;;;4.68;1.92;;;;;;;;;;5060219;28;20500;-81
2022/09/09 04:26:45;;;;;;;5.20;1.92;;;;;;;;;;5057317;28;20036;-81
2022/09/09 04:29:11;;;;;;;4.13;1.95;;;;;;;;;;5058281;28;20025;-81
2022/09/09 04:31:41;;;;;;;4.65;1.90;;;;;;;;;;5059670;28;20516;-81
2022/09/09 04:34:07;;;;;;;4.68;2.08;;;;;;;;;;5063892;28;20028;-81
2022/09/09 04:36:34;;;;;;;4.78;2.65;;;;;;;;;;5059632;28;20048;-81
2022/09/09 04:39:01;;;;;;;4.28;2.10;;;;;;;;;;5052389;28;20037;-81
2022/09/09 04:41:27;;;;;;;3.65;1.80;;;;;;;;;;5060861;28;20018;-81
2022/09/09 04:43:53;;;;;;;6.30;2.20;;;;;;;;;;5064844;28;20048;-80
2022/09/09 04:46:20;;;;;;;5.43;2.38;;;;;;;;;;5073421;28;20043;-80
2022/09/09 04:48:46;;;;;;;5.78;2.60;;;;;;;;;;5081933;28;20064;-80
2022/09/09 04:51:13;;;;;;;6.00;2.42;;;;;;;;;;5058573;28;20044;-80
2022/09/09 04:53:40;;;;;;;5.03;2.90;;;;;;;;;;5057214;28;20366;-81
2022/09/09 04:56:09;;;;;;;4.35;2.03;;;;;;;;;;5058698;28;20005;-80
2022/09/09 04:58:36;;;;;;;4.95;2.17;;;;;;;;;;5058485;28;20025;-80
2022/09/09 05:01:06;;;;;;;5.13;2.00;;;;;;;;;;5059725;28;20024;-80
2022/09/09 05:03:32;;;;;;;4.70;2.10;;;;;;;;;;5070317;28;20387;-81
2022/09/09 05:06:06;;;;;;;4.55;2.20;;;;;;;;;;5059494;28;20119;-80
2022/09/09 05:08:32;;;;;;;5.65;2.65;;;;;;;;;;5053599;28;20120;-80
2022/09/09 05:10:59;;;;;;;5.13;2.50;;;;;;;;;;5058736;28;20029;-80
2022/09/09 05:13:26;;;;;;;6.20;2.90;;;;;;;;;;5058674;28;20056;-81
2022/09/09 05:15:55;;;;;;;4.95;2.25;;;;;;;;;;5058866;28;20060;-80
2022/09/09 05:18:22;;;;;;;5.13;2.50;;;;;;;;;;5060935;28;20080;-80
2022/09/09 05:20:48;;;;;;;5.43;2.85;;;;;;;;;;5063364;28;20025;-81
2022/09/09 05:23:14;;;;;;;6.78;3.38;;;;;;;;;;5063782;28;20037;-81
2022/09/09 05:25:40;;;;;;;5.03;2.60;;;;;;;;;;5069406;28;20036;-81
2022/09/09 05:28:07;;;;;;;4.57;2.55;;;;;;;;;;5065425;28;20386;-81
2022/09/09 05:30:33;;;;;;;6.00;2.78;;;;;;;;;;5066805;28;20036;-81
2022/09/09 05:32:59;;;;;;;4.82;2.47;;;;;;;;;;5066933;28;20040;-80
2022/09/09 05:35:25;;;;;;;7.55;2.97;;;;;;;;;;5063029;28;20476;-80
2022/09/09 05:37:52;;;;;;;4.97;2.42;;;;;;;;;;5061049;28;20025;-81
2022/09/09 05:40:18;;;;;;;8.60;4.22;;;;;;;;;;5061090;28;20017;-82
2022/09/09 05:42:44;;;;;;;6.53;4.28;;;;;;;;;;5061734;28;20051;-81
2022/09/09 05:45:10;;;;;;;7.13;4.40;;;;;;;;;;5060619;28;20067;-81
2022/09/09 05:47:37;;;;;;;6.65;4.07;;;;;;;;;;5067964;28;20054;-81
2022/09/09 05:50:03;;;;;;;7.28;3.35;;;;;;;;;;5066510;28;20032;-81
2022/09/09 05:52:29;;;;;;;6.53;2.92;;;;;;;;;;5047034;28;20025;-81
2022/09/09 05:54:56;;;;;;;6.30;3.10;;;;;;;;;;5053917;28;20033;-81
2022/09/09 05:57:23;;;;;;;5.75;3.10;;;;;;;;;;5061813;28;20028;-82
2022/09/09 05:59:49;;;;;;;5.90;3.15;;;;;;;;;;5058121;28;20029;-81
2022/09/09 06:02:16;;;;;;;8.75;3.90;;;;;;;;;;5047734;28;20025;-81
2022/09/09 06:04:42;;;;;;;8.07;3.72;;;;;;;;;;5061382;28;20017;-82
2022/09/09 06:07:08;;;;;;;6.10;3.15;;;;;;;;;;5058218;28;20020;-81
2022/09/09 06:09:34;;;;;;;7.65;3.42;;;;;;;;;;5058421;28;20032;-81
2022/09/09 06:12:00;;;;;;;9.93;4.35;;;;;;;;;;5061727;28;20057;-81
2022/09/09 06:14:27;;;;;;;6.60;3.38;;;;;;;;;;5060018;28;20025;-80
2022/09/09 06:16:53;;;;;;;9.57;3.78;;;;;;;;;;5058133;28;20032;-80
2022/09/09 06:19:20;;;;;;;7.55;3.13;;;;;;;;;;5060304;28;20025;-82
2022/09/09 06:21:47;;;;;;;7.63;3.30;;;;;;;;;;5058754;28;20385;-81
2022/09/09 06:24:17;;;;;;;6.63;3.47;;;;;;;;;;5060732;28;20025;-79
2022/09/09 06:26:43;;;;;;;5.90;3.42;;;;;;;;;;5056229;28;20029;-80
2022/09/09 06:29:09;;;;;;;6.75;4.00;;;;;;;;;;5061194;28;20029;-82
2022/09/09 06:31:36;;;;;;;9.80;3.95;;;;;;;;;;5059599;28;20039;-80
2022/09/09 06:34:04;;;;;;;7.85;3.53;;;;;;;;;;5061936;28;20445;-80
2022/09/09 06:36:31;;;;;;;5.65;3.50;;;;;;;;;;5058019;28;20071;-80
2022/09/09 06:38:58;;;;;;;6.20;3.80;;;;;;;;;;5062628;28;20039;-79
2022/09/09 06:41:26;;;;;;;9.77;4.10;;;;;;;;;;5060863;28;20121;-79
2022/09/09 06:43:52;;;;;;;6.63;3.80;;;;;;;;;;5060071;28;20068;-79
2022/09/09 06:46:19;;;;;;;7.88;3.75;;;;;;;;;;5058171;28;20041;-80
2022/09/09 06:48:48;;;;;;;5.57;3.25;;;;;;;;;;5057900;28;20056;-79
2022/09/09 06:51:16;;;;;;;6.40;3.50;;;;;;;;;;5057179;28;20017;-79
2022/09/09 06:53:44;;;;;;;8.13;4.28;;;;;;;;;;5051076;28;20021;-79
2022/09/09 06:56:10;;;;;;;6.60;3.53;;;;;;;;;;5057174;28;20024;-80
2022/09/09 06:58:45;;;;;;;6.00;3.78;;;;;;;;;;5060271;28;20029;-81
2022/09/09 07:01:13;;;;;;;7.03;3.53;;;;;;;;;;5058834;28;20032;-81
2022/09/09 07:03:39;;;;;;;5.72;2.92;;;;;;;;;;5059009;28;20036;-81
2022/09/09 07:06:07;;;;;;;5.78;3.05;;;;;;;;;;5047952;28;20501;-80
2022/09/09 07:08:33;;;;;;;5.68;2.80;;;;;;;;;;5057555;28;20089;-81
2022/09/09 07:11:04;;;;;;;5.95;2.72;;;;;;;;;;5057003;28;20455;-80
2022/09/09 07:13:31;;;;;;;4.90;3.10;;;;;;;;;;5057629;28;20027;-80
2022/09/09 07:16:03;;;;;;;5.30;2.95;;;;;;;;;;5056763;28;20031;-80
2022/09/09 07:18:30;;;;;;;5.55;2.33;;;;;;;;;;5060657;28;20481;-81
2022/09/09 07:20:56;;;;;;;6.82;3.20;;;;;;;;;;5061196;28;20020;-80
2022/09/09 07:23:23;;;;;;;5.25;2.63;;;;;;;;;;5054615;28;20095;-80
2022/09/09 07:25:50;;;;;;;5.55;2.30;;;;;;;;;;5056849;28;20485;-80
2022/09/09 07:28:16;;;;;;;4.32;2.00;;;;;;;;;;5051952;28;20103;-80
2022/09/09 07:30:42;;;;;;;4.88;2.10;;;;;;;;;;5058772;28;20029;-81
2022/09/09 07:33:09;;;;;;;3.63;1.45;;;;;;;;;;5056751;28;20028;-81
2022/09/09 07:35:36;;;;;;;4.13;1.67;;;;;;;;;;5055393;28;20492;-81
2022/09/09 07:38:06;;;;;;;3.63;1.48;;;;;;;;;;5056417;28;20180;-80
2022/09/09 07:40:32;;;;;;;3.50;1.10;;;;;;;;;;5056857;28;20108;-81
2022/09/09 07:42:59;;;;;;;2.83;1.10;;;;;;;;;;5054925;28;20021;-81
2022/09/09 07:45:28;;;;;;;2.83;1.38;;;;;;;;;;5056307;28;20017;-81
2022/09/09 07:47:56;;;;;;;4.00;1.75;;;;;;;;;;5055092;28;20041;-82
2022/09/09 07:50:23;;;;;;;4.15;1.60;;;;;;;;;;5044991;28;20017;-80
2022/09/09 07:52:49;;;;;;;3.50;1.58;;;;;;;;;;5054311;28;20408;-82
2022/09/09 07:55:15;;;;;;;4.25;1.48;;;;;;;;;;5061523;28;20020;-79
2022/09/09 07:57:41;;;;;;;3.67;1.60;;;;;;;;;;5055595;28;20104;-79
2022/09/09 08:00:08;;;;;;;3.42;1.42;;;;;;;;;;5061224;28;20055;-80
2022/09/09 08:02:34;;;;;;;4.00;1.75;;;;;;;;;;5056526;28;20059;-80
2022/09/09 08:05:00;;;;;;;4.97;1.70;;;;;;;;;;5054983;28;20025;-80
2022/09/09 08:07:26;;;;;;;4.28;1.63;;;;;;;;;;5053867;28;20088;-81
2022/09/09 08:09:55;;;;;;;4.25;1.52;;;;;;;;;;5053197;28;20029;-80
2022/09/09 08:12:22;;;;;;;3.83;1.70;;;;;;;;;;5053779;28;20049;-80
2022/09/09 08:14:48;;;;;;;3.97;1.42;;;;;;;;;;5043973;28;20033;-80
2022/09/09 08:17:14;;;;;;;3.25;1.33;;;;;;;;;;5038564;28;20032;-80
2022/09/09 08:19:40;;;;;;;3.45;1.20;;;;;;;;;;5043526;28;20104;-80
2022/09/09 08:22:07;;;;;;;3.42;1.20;;;;;;;;;;5055457;28;20113;-80
2022/09/09 08:24:34;;;;;;;3.80;1.23;;;;;;;;;;5055653;28;20615;-80
2022/09/09 08:27:00;;;;;;;4.80;1.33;;;;;;;;;;5054947;28;20032;-80
2022/09/09 08:29:27;;;;;;;4.60;1.73;;;;;;;;;;5056313;28;20025;-79
2022/09/09 08:31:54;;;;;;;4.82;1.90;;;;;;;;;;5057499;28;20032;-79
2022/09/09 08:34:21;;;;;;;7.55;2.70;;;;;;;;;;5055800;28;20021;-79
2022/09/09 08:36:48;;;;;;;5.97;2.92;;;;;;;;;;5054722;28;20029;-79
2022/09/09 08:39:15;;;;;;;6.63;3.13;;;;;;;;;;5059546;28;20449;-79
2022/09/09 08:42:02;;;;;;;6.05;3.30;;;;;;;;;;5047333;28;20084;-79
2022/09/09 08:44:35;;;;;;;6.07;3.70;;;;;;;;;;5051118;28;20032;-79
2022/09/09 08:47:14;;;;;;;7.05;4.13;;;;;;;;;;5061363;28;20041;-80
2022/09/09 08:49:59;;;;;;;7.90;5.57;;;;;;;;;;5063010;28;20032;-79
2022/09/09 08:52:30;;;;;;;7.50;4.78;;;;;;;;;;5059373;28;20106;-79
2022/09/09 08:54:59;;;;;;;10.45;5.32;;;;;;;;;;5060776;28;20025;-78
2022/09/09 08:57:27;;;;;;;8.80;4.57;;;;;;;;;;5055763;28;20029;-79
2022/09/09 08:59:55;;;;;;;7.05;4.70;;;;;;;;;;5049275;28;20037;-79
2022/09/09 09:02:40;;;;;;;7.75;4.47;;;;;;;;;;5055878;28;20016;-80
2022/09/09 09:05:29;;;;;;;5.63;3.58;;;;;;;;;;5055639;28;20121;-79
2022/09/09 09:08:03;;;;;;;6.50;3.42;;;;;;;;;;5054293;28;20072;-80
2022/09/09 09:10:30;;;;;;;5.32;3.22;;;;;;;;;;5055562;28;20082;-80
2022/09/09 09:12:56;;;;;;;6.28;3.67;;;;;;;;;;5056185;28;20108;-79
2022/09/09 09:15:26;;;;;;;6.78;3.40;;;;;;;;;;5049423;28;20791;-79
2022/09/09 09:17:52;;;;;;;5.45;3.20;;;;;;;;;;5057634;28;20052;-79
2022/09/09 09:20:21;;;;;;;6.00;3.50;;;;;;;;;;5056496;28;20656;-80
2022/09/09 09:22:52;;;;;;;9.75;3.45;;;;;;;;;;5056254;28;20041;-79
2022/09/09 09:25:18;;;;;;;5.60;2.50;;;;;;;;;;5055074;28;20033;-79
2022/09/09 09:27:45;;;;;;;6.80;3.70;;;;;;;;;;5056359;28;20447;-79
2022/09/09 09:30:15;;;;;;;5.97;2.92;;;;;;;;;;5059033;28;20076;-79
2022/09/09 09:32:48;;;;;;;6.63;2.90;;;;;;;;;;5060251;28;20098;-79
2022/09/09 09:35:14;;;;;;;6.03;2.80;;;;;;;;;;5047922;28;20026;-79
2022/09/09 09:37:41;;;;;;;5.00;2.50;;;;;;;;;;5057648;28;20029;-79
2022/09/09 09:40:15;;;;;;;3.90;1.70;;;;;;;;;;5057281;28;20135;-80
2022/09/09 09:42:51;;;;;;;5.75;2.15;;;;;;;;;;5043046;28;20393;-80
2022/09/09 09:45:37;;;;;;;4.55;1.92;;;;;;;;;;5053734;28;20025;-79
2022/09/09 09:48:04;;;;;;;3.42;1.50;;;;;;;;;;5058752;28;20126;-79
2022/09/09 09:50:31;;;;;;;6.50;2.00;;;;;;;;;;5051647;28;20480;-79
2022/09/09 09:52:58;;;;;;;4.60;2.20;;;;;;;;;;5047241;28;20041;-80
2022/09/09 09:55:25;;;;;;;5.47;2.20;;;;;;;;;;5054107;28;20029;-79
2022/09/09 09:57:53;;;;;;;6.28;2.50;;;;;;;;;;5055963;28;20025;-78
2022/09/09 10:00:20;;;;;;;5.35;2.60;;;;;;;;;;5054099;28;20044;-79
2022/09/09 10:02:47;;;;;;;3.58;1.55;;;;;;;;;;5056362;28;20108;-79
2022/09/09 10:05:13;;;;;;;4.00;1.40;;;;;;;;;;5058029;28;20025;-80
2022/09/09 10:07:39;;;;;;;7.00;4.00;;;;;;;;;;5056700;28;20029;-79
2022/09/09 10:10:06;;;;;;;3.65;1.40;;;;;;;;;;5055588;28;20480;-79
2022/09/09 10:12:37;;;;;;;3.17;1.30;;;;;;;;;;5052688;28;20021;-79
2022/09/09 10:15:16;;;;;;;2.45;1.10;;;;;;;;;;5056788;28;20117;-78
2022/09/09 10:17:50;;;;;;;3.60;1.30;;;;;;;;;;5057192;28;20082;-79
2022/09/09 10:20:19;;;;;;;2.75;1.00;;;;;;;;;;5060137;28;20094;-78
2022/09/09 10:22:50;;;;;;;2.45;0.98;;;;;;;;;;5061601;28;20037;-78
2022/09/09 10:25:44;;;;;;;2.28;0.90;;;;;;;;;;5060268;28;20039;-78
2022/09/09 10:28:24;;;;;;;3.60;1.30;;;;;;;;;;5069727;28;20037;-78
2022/09/09 10:30:50;;;;;;;3.30;1.20;;;;;;;;;;5082766;28;20064;-79
2022/09/09 10:33:24;;;;;;;3.17;1.20;;;;;;;;;;5081288;28;20048;-79
2022/09/09 10:35:51;;;;;;;3.85;1.30;;;;;;;;;;5078719;28;20024;-79
2022/09/09 10:38:17;;;;;;;2.60;0.95;;;;;;;;;;5065206;28;20029;-78
2022/09/09 10:40:51;;;;;;;3.08;1.10;;;;;;;;;;5053997;28;20043;-78
2022/09/09 10:43:35;;;;;;;2.67;0.90;;;;;;;;;;5070404;28;20052;-78
2022/09/09 10:46:13;;;;;;;3.78;1.25;;;;;;;;;;5064344;28;20045;-78
2022/09/09 10:48:58;;;;;;;2.35;1.08;;;;;;;;;;5064073;28;20040;-78
2022/09/09 10:51:27;;;;;;;2.97;1.10;;;;;;;;;;5074282;28;20516;-79
2022/09/09 10:53:54;;;;;;;3.55;1.23;;;;;;;;;;5059871;28;20033;-78
2022/09/09 10:56:23;;;;;;;4.68;1.27;;;;;;;;;;5042739;28;20017;-79
2022/09/09 10:58:55;;;;;;;2.67;1.02;;;;;;;;;;5060675;28;20082;-79
2022/09/09 11:01:33;;;;;;;7.17;1.50;;;;;;;;;;5062649;28;20067;-78
2022/09/09 11:04:22;;;;;;;3.22;1.00;;;;;;;;;;5068379;28;20452;-79
2022/09/09 11:06:52;;;;;;;3.70;1.10;;;;;;;;;;5047746;28;20021;-80
2022/09/09 11:09:19;;;;;;;2.20;0.90;;;;;;;;;;5061564;28;20032;-79
2022/09/09 11:11:49;;;;;;;3.20;1.10;;;;;;;;;;5071294;28;20020;-79
2022/09/09 11:14:20;;;;;;;3.17;0.90;;;;;;;;;;5058743;28;20048;-78
2022/09/09 11:17:04;;;;;;;4.03;0.90;;;;;;;;;;5055939;28;20025;-79
2022/09/09 11:19:34;;;;;;;2.33;0.75;;;;;;;;;;5052143;28;20053;-78
2022/09/09 11:22:01;;;;;;;11.02;1.83;;;;;;;;;;5059241;28;20025;-79
2022/09/09 11:24:42;;;;;;;2.63;1.00;;;;;;;;;;5055467;28;20028;-78
2022/09/09 11:27:16;;;;;;;3.13;0.85;;;;;;;;;;5057182;28;20098;-78
2022/09/09 11:29:48;;;;;;;2.33;0.90;;;;;;;;;;5058080;28;20040;-78
2022/09/09 11:32:33;;;;;;;3.92;1.00;;;;;;;;;;5059595;28;20047;-79
2022/09/09 11:35:20;;;;;;;2.13;0.80;;;;;;;;;;5061152;28;20021;-79
2022/09/09 11:37:52;;;;;;;1.60;0.70;;;;;;;;;;5056908;28;20613;-78
2022/09/09 11:40:26;;;;;;;3.10;1.02;;;;;;;;;;5055579;28;20033;-78
2022/09/09 11:43:04;;;;;;;3.13;1.15;;;;;;;;;;5052842;28;20128;-78
2022/09/09 11:45:30;;;;;;;3.47;1.10;;;;;;;;;;5053459;28;20024;-78
2022/09/09 11:47:57;;;;;;;3.10;1.00;;;;;;;;;;5055173;28;20049;-79
2022/09/09 11:50:23;;;;;;;3.00;1.15;;;;;;;;;;5055312;28;20029;-79
2022/09/09 11:52:49;;;;;;;2.63;1.00;;;;;;;;;;5053763;28;20025;-80
2022/09/09 11:55:27;;;;;;;2.67;1.38;;;;;;;;;;5055131;28;20052;-79
2022/09/09 11:58:00;;;;;;;4.25;1.75;;;;;;;;;;5053370;28;20026;-79
2022/09/09 12:00:45;;;;;;;3.00;1.30;;;;;;;;;;5059692;28;20356;-79
2022/09/09 12:03:30;;;;;;;2.85;1.02;;;;;;;;;;5063746;28;20025;-81
2022/09/09 12:06:00;;;;;;;3.13;1.35;;;;;;;;;;5059686;28;20021;-81
2022/09/09 12:08:29;;;;;;;3.00;1.10;;;;;;;;;;5047285;28;20026;-81
2022/09/09 12:10:56;;;;;;;3.30;1.23;;;;;;;;;;5073562;28;20056;-81
2022/09/09 12:13:24;;;;;;;2.10;1.00;;;;;;;;;;5060755;28;20444;-81
2022/09/09 12:15:53;;;;;;;3.17;1.27;;;;;;;;;;5058115;28;20455;-81
2022/09/09 12:18:23;;;;;;;2.80;1.15;;;;;;;;;;5058540;28;20084;-80
2022/09/09 12:20:57;;;;;;;2.40;1.00;;;;;;;;;;5060117;28;20031;-80
2022/09/09 12:23:33;;;;;;;2.28;0.93;;;;;;;;;;5058374;28;20711;-80
2022/09/09 12:26:22;;;;;;;2.97;1.35;;;;;;;;;;5058790;28;20036;-80
2022/09/09 12:28:51;;;;;;;3.20;1.20;;;;;;;;;;5054466;28;20037;-80
2022/09/09 12:31:21;;;;;;;2.58;1.00;;;;;;;;;;5058651;28;20029;-80
2022/09/09 12:33:48;;;;;;;2.60;1.00;;;;;;;;;;5057548;28;21612;-79
2022/09/09 12:36:26;;;;;;;3.90;1.00;;;;;;;;;;5041342;28;20034;-78
2022/09/09 12:38:54;;;;;;;2.00;0.90;;;;;;;;;;5057423;28;20056;-79
2022/09/09 12:41:28;;;;;;;2.08;0.85;;;;;;;;;;5057585;28;20036;-79
2022/09/09 12:44:05;;;;;;;2.47;0.95;;;;;;;;;;5057496;28;20056;-80
2022/09/09 12:46:36;;;;;;;2.33;0.82;;;;;;;;;;5056732;28;20539;-79
2022/09/09 12:49:02;;;;;;;3.92;0.95;;;;;;;;;;5053008;28;20434;-79
2022/09/09 12:51:30;;;;;;;2.10;0.90;;;;;;;;;;5057111;28;20025;-79
2022/09/09 12:53:56;;;;;;;2.65;0.90;;;;;;;;;;5062888;28;20541;-79
2022/09/09 12:56:26;;;;;;;2.55;1.10;;;;;;;;;;5057516;28;20029;-79
2022/09/09 12:58:52;;;;;;;2.92;1.02;;;;;;;;;;5057653;28;20017;-79
2022/09/09 13:01:26;;;;;;;2.53;1.00;;;;;;;;;;5056742;28;20040;-79
2022/09/09 13:03:53;;;;;;;2.85;0.80;;;;;;;;;;5053836;28;20653;-79
2022/09/09 13:06:22;;;;;;;4.10;1.20;;;;;;;;;;5057928;28;20033;-79
2022/09/09 13:08:48;;;;;;;3.40;1.52;;;;;;;;;;5044441;28;20444;-79
2022/09/09 13:11:17;;;;;;;2.90;1.10;;;;;;;;;;5068859;28;20463;-79
2022/09/09 13:13:43;;;;;;;3.03;1.02;;;;;;;;;;5054532;28;20077;-79
2022/09/09 13:16:20;;;;;;;2.75;0.98;;;;;;;;;;5058225;28;20048;-79
2022/09/09 13:18:46;;;;;;;3.67;1.02;;;;;;;;;;5061330;28;20025;-79
2022/09/09 13:21:15;;;;;;;2.50;1.00;;;;;;;;;;5041453;28;20060;-79
2022/09/09 13:23:41;;;;;;;2.78;1.10;;;;;;;;;;5041307;28;20026;-79
2022/09/09 13:26:23;;;;;;;2.80;1.10;;;;;;;;;;5043470;28;20061;-79
2022/09/09 13:28:50;;;;;;;2.97;0.98;;;;;;;;;;5036699;28;20045;-79
2022/09/09 13:31:24;;;;;;;2.15;1.00;;;;;;;;;;5037275;28;20029;-79
2022/09/09 13:33:50;;;;;;;2.63;0.98;;;;;;;;;;5059212;28;20021;-79
2022/09/09 13:36:16;;;;;;;3.40;1.10;;;;;;;;;;5060483;28;20085;-79
2022/09/09 13:38:51;;;;;;;2.67;1.15;;;;;;;;;;5059285;28;20070;-79
2022/09/09 13:41:23;;;;;;;2.45;1.10;;;;;;;;;;5063565;28;20032;-79
2022/09/09 13:43:49;;;;;;;3.28;1.05;;;;;;;;;;5059468;28;20435;-79
2022/09/09 13:46:25;;;;;;;2.80;1.20;;;;;;;;;;5061085;28;20052;-79
2022/09/09 13:49:14;;;;;;;2.80;1.10;;;;;;;;;;5058844;28;20048;-79
2022/09/09 13:51:50;;;;;;;3.22;1.30;;;;;;;;;;5049326;28;20041;-79
2022/09/09 13:54:17;;;;;;;3.53;1.10;;;;;;;;;;5048365;28;20029;-79
2022/09/09 13:56:44;;;;;;;3.55;1.70;;;;;;;;;;5057654;28;20017;-79
2022/09/09 13:59:15;;;;;;;3.25;1.10;;;;;;;;;;5052979;28;20094;-78
2022/09/09 14:01:41;;;;;;;3.17;1.23;;;;;;;;;;5055123;28;20071;-78
2022/09/09 14:04:07;;;;;;;2.65;1.08;;;;;;;;;;5051744;28;20083;-77
2022/09/09 14:06:36;;;;;;;2.65;1.10;;;;;;;;;;5034893;28;20393;-78
2022/09/09 14:09:02;;;;;;;2.92;0.98;;;;;;;;;;5050579;28;20519;-78
2022/09/09 14:11:27;;;;;;;3.58;1.33;;;;;;;;;;5054246;28;20032;-77
2022/09/09 14:13:54;;;;;;;3.53;1.10;;;;;;;;;;5055624;28;20056;-78
2022/09/09 14:16:21;;;;;;;3.53;1.02;;;;;;;;;;5050497;28;20025;-79
2022/09/09 14:18:47;;;;;;;2.67;1.10;;;;;;;;;;5050833;28;20029;-79
2022/09/09 14:21:13;;;;;;;2.42;1.10;;;;;;;;;;5057726;28;20542;-79
2022/09/09 14:23:39;;;;;;;3.35;1.73;;;;;;;;;;5057455;28;20024;-79
2022/09/09 14:26:05;;;;;;;3.25;1.08;;;;;;;;;;5058335;28;20544;-79
2022/09/09 14:28:33;;;;;;;4.05;1.30;;;;;;;;;;5055255;28;20052;-79
2022/09/09 14:31:03;;;;;;;2.65;1.17;;;;;;;;;;5057077;28;20017;-79
2022/09/09 14:33:29;;;;;;;2.67;1.00;;;;;;;;;;5047149;28;20028;-79
2022/09/09 14:36:03;;;;;;;3.35;1.10;;;;;;;;;;5052287;28;20029;-80
2022/09/09 14:38:30;;;;;;;2.58;1.02;;;;;;;;;;5054591;28;20036;-79
2022/09/09 14:40:57;;;;;;;3.67;1.25;;;;;;;;;;5056318;28;20063;-80
2022/09/09 14:43:23;;;;;;;3.00;1.15;;;;;;;;;;5053878;28;20622;-80
2022/09/09 14:45:51;;;;;;;3.40;1.40;;;;;;;;;;5056522;28;20562;-80
2022/09/09 14:48:17;;;;;;;4.00;1.50;;;;;;;;;;5052411;28;20070;-80
2022/09/09 14:50:43;;;;;;;4.40;2.00;;;;;;;;;;5048268;28;20017;-80
2022/09/09 14:53:09;;;;;;;5.90;1.83;;;;;;;;;;5056129;28;20024;-80
2022/09/09 14:55:36;;;;;;;2.70;1.30;;;;;;;;;;5055519;28;20089;-80
2022/09/09 14:58:02;;;;;;;4.00;1.60;;;;;;;;;;5055565;28;20045;-80